EW7285 Vallentuna SE current weather conditions

sailwx.info

Wind from 207 at 3 knots gusting 6

Air temperature 15.6° C
Dewpoint 12.3° C

Last reported at 2020-Aug-12 06:00 UTC.
Time now 2020-Aug-12 07:01 UTC

Location: N 59°33' E 018°03'.
View on Google Maps.

See reports from other nearby stations

  
Tides and Currents Weather Stations Pressure Air Temp Water Temp Dewpoint Dewpoint Depression Visibility Wind Speed Wind Dir Waves Ship Positions
date/time (UTC)wind fromknots sea level pressurealtimeterstation pressurevisibilityair tempwater tempwave heightnotes
2020-Aug-12 06:00 207 3 gusting 6 15.6
2020-Aug-12 05:45 145 3 gusting 6 15.0
2020-Aug-12 05:30 150 1 gusting 2 13.3
2020-Aug-12 05:15 136 11.7
2020-Aug-12 05:00 136 0 gusting 1 10.6
2020-Aug-12 04:47 136 10.0
2020-Aug-12 04:31 136 0 gusting 1 9.4
2020-Aug-12 04:17 136 8.9
2020-Aug-12 04:02 136 8.3
2020-Aug-12 03:47 136 7.8
2020-Aug-12 03:31 136 7.8
2020-Aug-12 03:16 171 7.2
2020-Aug-12 03:01 171 7.2
2020-Aug-12 02:46 171 7.2
2020-Aug-12 02:31 171 7.8
2020-Aug-12 02:16 171 7.8
2020-Aug-12 02:01 171 7.2
2020-Aug-12 01:45 171 7.2
2020-Aug-12 01:31 171 7.8
2020-Aug-12 01:16 171 7.8
2020-Aug-12 01:00 171 7.8
2020-Aug-12 00:46 171 0 gusting 1 7.8
2020-Aug-12 00:31 171 8.3
2020-Aug-12 00:15 171 8.3
2020-Aug-12 00:00 171 0 gusting 1 8.9
2020-Aug-11 23:45 171 0 gusting 1 8.9
2020-Aug-11 23:30 171 8.9
2020-Aug-11 23:15 171 8.9
2020-Aug-11 23:00 171 8.9
2020-Aug-11 22:46 171 9.4
2020-Aug-11 22:30 171 9.4
2020-Aug-11 22:15 171 10.0
2020-Aug-11 22:00 138 10.0
2020-Aug-11 21:45 138 10.0
2020-Aug-11 21:30 138 10.6
2020-Aug-11 21:15 138 11.7
2020-Aug-11 21:00 148 1 gusting 2 11.1
2020-Aug-11 20:45 113 11.7
2020-Aug-11 20:30 113 12.2
2020-Aug-11 20:15 113 12.8
2020-Aug-11 20:00 113 0 gusting 1 13.3
2020-Aug-11 19:45 113 13.9
2020-Aug-11 19:30 113 0 gusting 2 15.0
2020-Aug-11 19:15 058 2 gusting 4 15.6
2020-Aug-11 19:01 057 3 gusting 4 16.1
2020-Aug-11 18:47 036 3 gusting 5 16.7
2020-Aug-11 18:32 026 3 gusting 5 17.8
2020-Aug-11 18:17 034 0 gusting 3 18.3
2020-Aug-11 18:03 033 1 gusting 5 18.9
2020-Aug-11 17:47 036 0 gusting 4 19.4
2020-Aug-11 17:32 338 0 gusting 4 20.0
2020-Aug-11 17:16 022 1 gusting 6 20.0
2020-Aug-11 17:01 026 2 gusting 7 20.0
2020-Aug-11 16:48 005 5 gusting 9 20.6
2020-Aug-11 16:31 044 2 gusting 8 20.6
2020-Aug-11 16:16 341 4 gusting 8 20.6
2020-Aug-11 16:01 019 4 gusting 7 21.1
2020-Aug-11 15:47 340 6 gusting 12 21.1
2020-Aug-11 15:31 346 7 gusting 11 21.1
2020-Aug-11 15:17 329 5 gusting 9 21.1
2020-Aug-11 15:01 355 5 gusting 8 21.1
2020-Aug-11 14:45 333 6 gusting 10 21.7
2020-Aug-11 14:31 044 5 gusting 11 21.1
2020-Aug-11 14:17 036 3 gusting 11 21.1
2020-Aug-11 14:01 344 4 gusting 10 21.1
2020-Aug-11 13:46 333 6 gusting 10 21.1
2020-Aug-11 13:30 030 4 gusting 9 21.1
2020-Aug-11 13:18 345 6 gusting 13 21.1
2020-Aug-11 13:01 360 2 gusting 9 21.1
2020-Aug-11 12:45 360 6 gusting 11 21.1
2020-Aug-11 12:30 080 5 gusting 13 21.1
2020-Aug-11 12:16 065 5 gusting 9 21.1
2020-Aug-11 12:01 326 5 gusting 11 21.1
2020-Aug-11 11:46 076 4 gusting 12 20.6
2020-Aug-11 11:31 360 5 gusting 15 21.1
2020-Aug-11 11:15 057 3 gusting 11 20.6
2020-Aug-11 11:01 348 2 gusting 10 20.6
2020-Aug-11 10:46 047 6 gusting 10 20.6
2020-Aug-11 10:31 300 5 gusting 12 20.6
2020-Aug-11 10:15 343 2 gusting 8 19.4
2020-Aug-11 10:00 355 6 gusting 11 19.4
2020-Aug-11 09:45 058 6 gusting 11 20.0
2020-Aug-11 09:30 040 6 gusting 12 20.6
2020-Aug-11 09:16 035 6 gusting 11 20.0
2020-Aug-11 09:00 032 5 gusting 9 19.4
2020-Aug-11 08:31 327 6 gusting 14 18.9
2020-Aug-11 08:15 322 4 gusting 10 18.9
2020-Aug-11 08:00 042 4 gusting 12 18.9
2020-Aug-11 07:45 349 5 gusting 9 18.3
2020-Aug-11 07:30 337 3 gusting 9 17.8
2020-Aug-11 07:17 017 6 gusting 9 17.2
2020-Aug-11 07:01 309 3 gusting 7 16.7
2020-Aug-11 06:46 337 3 gusting 8 16.1
2020-Aug-11 06:31 325 3 gusting 7 15.6
2020-Aug-11 06:15 311 1 gusting 6 14.4
2020-Aug-11 06:01 311 3 gusting 6 13.9
2020-Aug-11 05:46 327 3 gusting 6 13.3
2020-Aug-11 05:31 310 2 gusting 4 12.2
2020-Aug-11 05:16 319 0 gusting 3 11.1
2020-Aug-11 05:00 333 2 gusting 4 10.0
2020-Aug-11 04:46 287 2 gusting 4 9.4
2020-Aug-11 04:32 271 1 gusting 2 8.3
2020-Aug-11 04:15 286 2 gusting 3 8.3
2020-Aug-11 04:00 319 1 gusting 2 7.2
2020-Aug-11 03:45 319 0 gusting 2 6.7
2020-Aug-11 03:30 319 1 gusting 2 6.7
2020-Aug-11 03:15 297 6.1
2020-Aug-11 03:00 279 0 gusting 2 6.1
2020-Aug-11 02:45 279 5.6
2020-Aug-11 02:30 279 6.1
2020-Aug-11 02:15 279 6.1
2020-Aug-11 02:00 279 6.1
2020-Aug-11 01:45 279 0 gusting 1 6.7
2020-Aug-11 01:32 279 0 gusting 2 6.7
2020-Aug-11 01:17 279 0 gusting 2 6.1
2020-Aug-11 01:01 279 6.7
2020-Aug-11 00:46 279 0 gusting 1 6.7
2020-Aug-11 00:31 279 0 gusting 1 7.2
2020-Aug-11 00:16 279 0 gusting 1 7.2
2020-Aug-11 00:01 279 0 gusting 2 7.2
2020-Aug-10 23:46 337 7.8
2020-Aug-10 23:32 337 0 gusting 1 7.8
2020-Aug-10 23:15 337 7.8
2020-Aug-10 23:01 337 8.3
2020-Aug-10 22:46 337 8.3
2020-Aug-10 22:31 337 8.9
2020-Aug-10 22:15 337 9.4
2020-Aug-10 22:00 337 9.4
2020-Aug-10 21:45 337 10.0
2020-Aug-10 21:30 338 0 gusting 1 10.6
2020-Aug-10 21:16 338 0 gusting 1 10.6
2020-Aug-10 21:00 338 11.1
2020-Aug-10 20:45 339 1 gusting 3 11.7
2020-Aug-10 20:30 339 0 gusting 1 12.2
2020-Aug-10 20:15 339 12.8
2020-Aug-10 20:00 339 12.8
2020-Aug-10 19:45 340 13.9
2020-Aug-10 19:30 345 14.4
2020-Aug-10 19:15 051 0 gusting 2 16.1
2020-Aug-10 19:00 024 1 gusting 2 16.7
2020-Aug-10 18:45 355 1 gusting 4 17.2
2020-Aug-10 18:30 344 1 gusting 6 17.8
2020-Aug-10 18:15 042 1 gusting 7 18.3
2020-Aug-10 18:00 347 2 gusting 8 18.3
2020-Aug-10 17:45 034 5 gusting 9 19.4
2020-Aug-10 17:30 360 3 gusting 10 19.4
2020-Aug-10 17:15 031 2 gusting 6 20.0
2020-Aug-10 17:00 360 5 gusting 7 20.6
2020-Aug-10 16:45 005 3 gusting 9 20.6
2020-Aug-10 16:30 037 3 gusting 8 21.1
2020-Aug-10 16:15 056 3 gusting 7 21.1
2020-Aug-10 16:00 355 3 gusting 10 21.1
2020-Aug-10 15:45 328 4 gusting 8 21.7
2020-Aug-10 15:32 044 4 gusting 10 21.7
2020-Aug-10 15:30 005 4 gusting 10 21.7
2020-Aug-10 15:17 075 1 gusting 10 21.7
2020-Aug-10 15:01 005 4 gusting 10 21.7
2020-Aug-10 14:46 327 3 gusting 11 22.2
2020-Aug-10 14:31 346 5 gusting 8 22.2
2020-Aug-10 14:16 033 4 gusting 7 21.7
2020-Aug-10 14:01 302 2 gusting 10 22.2
2020-Aug-10 13:46 346 5 gusting 10 21.7
2020-Aug-10 13:32 346 2 gusting 6 21.7
2020-Aug-10 13:16 348 2 gusting 10 21.7
2020-Aug-10 13:01 334 4 gusting 12 21.7
2020-Aug-10 12:46 024 5 gusting 12 21.7
2020-Aug-10 12:31 300 1 gusting 10 21.7
2020-Aug-10 12:16 329 7 gusting 13 21.7
2020-Aug-10 12:01 347 6 gusting 11 21.1
2020-Aug-10 11:46 024 3 gusting 9 21.7
2020-Aug-10 11:30 054 3 gusting 8 21.1
2020-Aug-10 11:15 313 4 gusting 12 21.1
2020-Aug-10 11:02 304 6 gusting 11 20.6
2020-Aug-10 10:46 034 3 gusting 10 21.1
2020-Aug-10 10:30 073 4 gusting 10 20.6
2020-Aug-10 10:15 022 3 gusting 11 20.6
2020-Aug-10 10:01 327 6 gusting 13 20.0
2020-Aug-10 09:45 029 4 gusting 12 20.0
2020-Aug-10 09:30 317 6 gusting 12 20.0
2020-Aug-10 09:15 327 4 gusting 12 20.0
2020-Aug-10 09:00 016 3 gusting 7 19.4
2020-Aug-10 08:45 005 5 gusting 10 20.0
2020-Aug-10 08:30 342 6 gusting 10 19.4
2020-Aug-10 08:15 341 5 gusting 8 19.4
2020-Aug-10 08:00 323 6 gusting 10 18.9
2020-Aug-10 07:45 344 3 gusting 8 18.3
2020-Aug-10 07:30 318 6 gusting 8 17.8
2020-Aug-10 07:15 305 6 gusting 7 17.8
2020-Aug-10 07:00 345 5 gusting 9 17.2